Terminal Aerodrome Forecast
Issued by NWS

Home | Current Version | Previous Version | Text Only | Print | Product List | Glossary On
Versions: 1 2 3 4 5 6 7 8 9 10 11 12 13 14 15 16 17
000
FTUS44 KMOB 191731
TAFBFM
TAF
KBFM 191731Z 1918/2018 11007KT P6SM FEW020
     FM200300 17002KT 2SM BR SCT010
     FM200600 10002KT 1/4SM FG VV002=

USA.gov is the U.S. government's official web portal to all federal, state and local government web resources and services.